sensor_id;sensor_type;location;lat;lon;timestamp;P1;durP1;ratioP1;P2;durP2;ratioP2
33184;SDS011;19550;42.872;25.494;2023-08-31T00:02:04;23.02;;;15.23;;
33184;SDS011;19550;42.872;25.494;2023-08-31T00:04:31;26.33;;;15.27;;
33184;SDS011;19550;42.872;25.494;2023-08-31T00:06:58;20.10;;;14.98;;
33184;SDS011;19550;42.872;25.494;2023-08-31T00:09:25;22.17;;;15.40;;
33184;SDS011;19550;42.872;25.494;2023-08-31T00:11:52;23.23;;;14.82;;
33184;SDS011;19550;42.872;25.494;2023-08-31T00:14:19;24.30;;;14.50;;
33184;SDS011;19550;42.872;25.494;2023-08-31T00:16:48;19.05;;;14.05;;
33184;SDS011;19550;42.872;25.494;2023-08-31T00:19:15;26.77;;;15.00;;
33184;SDS011;19550;42.872;25.494;2023-08-31T00:21:42;20.77;;;14.38;;
33184;SDS011;19550;42.872;25.494;2023-08-31T00:24:09;18.85;;;14.93;;
33184;SDS011;19550;42.872;25.494;2023-08-31T00:26:36;25.98;;;14.82;;
33184;SDS011;19550;42.872;25.494;2023-08-31T00:29:05;24.55;;;14.20;;
33184;SDS011;19550;42.872;25.494;2023-08-31T00:31:34;24.52;;;14.27;;
33184;SDS011;19550;42.872;25.494;2023-08-31T00:34:02;25.90;;;14.45;;
33184;SDS011;19550;42.872;25.494;2023-08-31T00:36:29;19.27;;;15.98;;
33184;SDS011;19550;42.872;25.494;2023-08-31T00:38:57;24.50;;;15.07;;
33184;SDS011;19550;42.872;25.494;2023-08-31T00:41:24;20.00;;;14.30;;
33184;SDS011;19550;42.872;25.494;2023-08-31T00:43:50;28.38;;;16.00;;
33184;SDS011;19550;42.872;25.494;2023-08-31T00:46:17;24.25;;;16.27;;
33184;SDS011;19550;42.872;25.494;2023-08-31T00:48:45;23.02;;;15.98;;
33184;SDS011;19550;42.872;25.494;2023-08-31T00:51:13;23.60;;;15.00;;
33184;SDS011;19550;42.872;25.494;2023-08-31T00:53:40;24.15;;;15.88;;
33184;SDS011;19550;42.872;25.494;2023-08-31T00:56:08;18.70;;;15.18;;
33184;SDS011;19550;42.872;25.494;2023-08-31T00:58:35;22.73;;;16.55;;
33184;SDS011;19550;42.872;25.494;2023-08-31T01:01:03;23.48;;;15.80;;
33184;SDS011;19550;42.872;25.494;2023-08-31T01:03:39;25.77;;;15.95;;
33184;SDS011;19550;42.872;25.494;2023-08-31T01:06:16;24.65;;;16.10;;
33184;SDS011;19550;42.872;25.494;2023-08-31T01:08:53;23.08;;;15.93;;
33184;SDS011;19550;42.872;25.494;2023-08-31T01:11:28;21.58;;;16.02;;
33184;SDS011;19550;42.872;25.494;2023-08-31T01:14:00;26.20;;;15.77;;
33184;SDS011;19550;42.872;25.494;2023-08-31T01:16:29;24.83;;;15.70;;
33184;SDS011;19550;42.872;25.494;2023-08-31T01:19:00;19.33;;;15.13;;
33184;SDS011;19550;42.872;25.494;2023-08-31T01:21:30;24.23;;;14.93;;
33184;SDS011;19550;42.872;25.494;2023-08-31T01:24:05;18.75;;;14.00;;
33184;SDS011;19550;42.872;25.494;2023-08-31T01:26:33;22.55;;;16.02;;
33184;SDS011;19550;42.872;25.494;2023-08-31T01:29:01;26.25;;;14.98;;
33184;SDS011;19550;42.872;25.494;2023-08-31T01:31:28;16.15;;;13.93;;
33184;SDS011;19550;42.872;25.494;2023-08-31T01:33:55;18.08;;;14.00;;
33184;SDS011;19550;42.872;25.494;2023-08-31T01:36:23;22.50;;;14.63;;
33184;SDS011;19550;42.872;25.494;2023-08-31T01:38:54;23.17;;;12.98;;
33184;SDS011;19550;42.872;25.494;2023-08-31T01:41:30;23.05;;;13.48;;
33184;SDS011;19550;42.872;25.494;2023-08-31T01:44:00;16.60;;;13.45;;
33184;SDS011;19550;42.872;25.494;2023-08-31T01:46:27;21.50;;;13.13;;
33184;SDS011;19550;42.872;25.494;2023-08-31T01:48:55;21.35;;;11.65;;
33184;SDS011;19550;42.872;25.494;2023-08-31T01:51:23;20.08;;;12.10;;
33184;SDS011;19550;42.872;25.494;2023-08-31T01:53:49;14.57;;;12.07;;
33184;SDS011;19550;42.872;25.494;2023-08-31T01:56:16;18.20;;;13.52;;
33184;SDS011;19550;42.872;25.494;2023-08-31T01:58:45;24.38;;;14.23;;
33184;SDS011;19550;42.872;25.494;2023-08-31T02:01:11;26.48;;;14.30;;
33184;SDS011;19550;42.872;25.494;2023-08-31T02:03:38;22.52;;;15.07;;
33184;SDS011;19550;42.872;25.494;2023-08-31T02:06:05;26.55;;;15.10;;
33184;SDS011;19550;42.872;25.494;2023-08-31T02:08:32;19.75;;;14.52;;
33184;SDS011;19550;42.872;25.494;2023-08-31T02:10:59;16.42;;;13.40;;
33184;SDS011;19550;42.872;25.494;2023-08-31T02:13:25;21.15;;;14.23;;
33184;SDS011;19550;42.872;25.494;2023-08-31T02:15:54;21.35;;;15.30;;
33184;SDS011;19550;42.872;25.494;2023-08-31T02:18:20;24.30;;;13.07;;
33184;SDS011;19550;42.872;25.494;2023-08-31T02:20:47;20.17;;;14.50;;
33184;SDS011;19550;42.872;25.494;2023-08-31T02:23:14;20.67;;;15.68;;
33184;SDS011;19550;42.872;25.494;2023-08-31T02:25:41;23.70;;;14.13;;
33184;SDS011;19550;42.872;25.494;2023-08-31T02:28:08;27.55;;;14.85;;
33184;SDS011;19550;42.872;25.494;2023-08-31T02:30:35;28.25;;;15.90;;
33184;SDS011;19550;42.872;25.494;2023-08-31T02:33:04;19.65;;;14.30;;
33184;SDS011;19550;42.872;25.494;2023-08-31T02:35:31;22.33;;;14.13;;
33184;SDS011;19550;42.872;25.494;2023-08-31T02:37:57;21.63;;;13.27;;
33184;SDS011;19550;42.872;25.494;2023-08-31T02:40:24;21.75;;;13.02;;
33184;SDS011;19550;42.872;25.494;2023-08-31T02:42:51;26.05;;;14.32;;
33184;SDS011;19550;42.872;25.494;2023-08-31T02:45:18;16.23;;;13.13;;
33184;SDS011;19550;42.872;25.494;2023-08-31T02:47:45;19.40;;;12.40;;
33184;SDS011;19550;42.872;25.494;2023-08-31T02:50:16;20.40;;;12.98;;
33184;SDS011;19550;42.872;25.494;2023-08-31T02:52:42;19.38;;;12.90;;
33184;SDS011;19550;42.872;25.494;2023-08-31T02:55:09;21.60;;;13.68;;
33184;SDS011;19550;42.872;25.494;2023-08-31T02:57:36;17.67;;;13.02;;
33184;SDS011;19550;42.872;25.494;2023-08-31T03:00:03;20.92;;;13.13;;
33184;SDS011;19550;42.872;25.494;2023-08-31T03:02:35;20.48;;;13.85;;
33184;SDS011;19550;42.872;25.494;2023-08-31T03:05:02;19.67;;;12.52;;
33184;SDS011;19550;42.872;25.494;2023-08-31T03:07:31;16.15;;;12.23;;
33184;SDS011;19550;42.872;25.494;2023-08-31T03:09:57;14.77;;;11.50;;
33184;SDS011;19550;42.872;25.494;2023-08-31T03:12:24;16.17;;;12.23;;
33184;SDS011;19550;42.872;25.494;2023-08-31T03:14:54;15.95;;;11.55;;
33184;SDS011;19550;42.872;25.494;2023-08-31T03:17:21;20.63;;;12.40;;
33184;SDS011;19550;42.872;25.494;2023-08-31T03:19:49;23.25;;;13.25;;
33184;SDS011;19550;42.872;25.494;2023-08-31T03:22:15;24.02;;;12.43;;
33184;SDS011;19550;42.872;25.494;2023-08-31T03:24:44;17.58;;;12.13;;
33184;SDS011;19550;42.872;25.494;2023-08-31T03:27:10;21.70;;;14.20;;
33184;SDS011;19550;42.872;25.494;2023-08-31T03:29:37;18.23;;;12.82;;
33184;SDS011;19550;42.872;25.494;2023-08-31T03:32:05;19.35;;;12.80;;
33184;SDS011;19550;42.872;25.494;2023-08-31T03:34:32;18.70;;;12.05;;
33184;SDS011;19550;42.872;25.494;2023-08-31T03:36:59;16.90;;;13.20;;
33184;SDS011;19550;42.872;25.494;2023-08-31T03:39:26;17.08;;;12.02;;
33184;SDS011;19550;42.872;25.494;2023-08-31T03:41:54;20.75;;;13.48;;
33184;SDS011;19550;42.872;25.494;2023-08-31T03:44:21;18.27;;;12.57;;
33184;SDS011;19550;42.872;25.494;2023-08-31T03:46:48;27.08;;;13.13;;
33184;SDS011;19550;42.872;25.494;2023-08-31T03:49:14;31.60;;;13.48;;
33184;SDS011;19550;42.872;25.494;2023-08-31T03:51:41;19.88;;;14.07;;
33184;SDS011;19550;42.872;25.494;2023-08-31T03:54:08;26.30;;;13.85;;
33184;SDS011;19550;42.872;25.494;2023-08-31T03:56:37;18.10;;;12.60;;
33184;SDS011;19550;42.872;25.494;2023-08-31T03:59:06;18.45;;;12.85;;
33184;SDS011;19550;42.872;25.494;2023-08-31T04:01:33;18.48;;;14.13;;
33184;SDS011;19550;42.872;25.494;2023-08-31T04:03:59;30.30;;;13.30;;
33184;SDS011;19550;42.872;25.494;2023-08-31T04:06:27;19.58;;;13.80;;
33184;SDS011;19550;42.872;25.494;2023-08-31T04:08:54;45.05;;;30.13;;
33184;SDS011;19550;42.872;25.494;2023-08-31T04:11:20;21.35;;;15.77;;
33184;SDS011;19550;42.872;25.494;2023-08-31T04:13:47;26.40;;;16.25;;
33184;SDS011;19550;42.872;25.494;2023-08-31T04:16:16;22.13;;;13.55;;
33184;SDS011;19550;42.872;25.494;2023-08-31T04:18:43;25.33;;;14.25;;
33184;SDS011;19550;42.872;25.494;2023-08-31T04:21:16;22.33;;;14.07;;
33184;SDS011;19550;42.872;25.494;2023-08-31T04:23:43;20.50;;;13.30;;
33184;SDS011;19550;42.872;25.494;2023-08-31T04:26:10;23.77;;;15.00;;
33184;SDS011;19550;42.872;25.494;2023-08-31T04:28:38;28.50;;;19.50;;
33184;SDS011;19550;42.872;25.494;2023-08-31T04:31:06;34.47;;;23.63;;
33184;SDS011;19550;42.872;25.494;2023-08-31T04:33:35;19.83;;;13.90;;
33184;SDS011;19550;42.872;25.494;2023-08-31T04:38:30;15.30;;;13.70;;
33184;SDS011;19550;42.872;25.494;2023-08-31T04:40:58;17.98;;;12.82;;
33184;SDS011;19550;42.872;25.494;2023-08-31T04:43:26;16.75;;;13.23;;
33184;SDS011;19550;42.872;25.494;2023-08-31T04:45:53;16.20;;;14.30;;
33184;SDS011;19550;42.872;25.494;2023-08-31T04:48:20;19.98;;;13.77;;
33184;SDS011;19550;42.872;25.494;2023-08-31T04:50:48;19.48;;;13.55;;
33184;SDS011;19550;42.872;25.494;2023-08-31T04:53:15;23.23;;;15.48;;
33184;SDS011;19550;42.872;25.494;2023-08-31T04:55:42;21.63;;;15.25;;
33184;SDS011;19550;42.872;25.494;2023-08-31T04:58:09;20.65;;;12.30;;
33184;SDS011;19550;42.872;25.494;2023-08-31T05:00:36;22.35;;;13.68;;
33184;SDS011;19550;42.872;25.494;2023-08-31T05:03:04;17.70;;;12.68;;
33184;SDS011;19550;42.872;25.494;2023-08-31T05:05:31;17.02;;;11.05;;
33184;SDS011;19550;42.872;25.494;2023-08-31T05:07:59;23.63;;;13.00;;
33184;SDS011;19550;42.872;25.494;2023-08-31T05:10:26;22.35;;;15.55;;
33184;SDS011;19550;42.872;25.494;2023-08-31T05:12:53;23.00;;;15.07;;
33184;SDS011;19550;42.872;25.494;2023-08-31T05:15:19;20.60;;;16.17;;
33184;SDS011;19550;42.872;25.494;2023-08-31T05:17:47;20.50;;;14.82;;
33184;SDS011;19550;42.872;25.494;2023-08-31T05:20:14;24.13;;;15.93;;
33184;SDS011;19550;42.872;25.494;2023-08-31T05:22:41;24.52;;;15.70;;
33184;SDS011;19550;42.872;25.494;2023-08-31T05:25:09;22.92;;;14.45;;
33184;SDS011;19550;42.872;25.494;2023-08-31T05:27:36;26.38;;;16.08;;
33184;SDS011;19550;42.872;25.494;2023-08-31T05:30:03;26.58;;;15.35;;
33184;SDS011;19550;42.872;25.494;2023-08-31T05:32:31;24.38;;;14.88;;
33184;SDS011;19550;42.872;25.494;2023-08-31T05:34:58;23.20;;;14.15;;
33184;SDS011;19550;42.872;25.494;2023-08-31T05:37:25;23.85;;;14.90;;
33184;SDS011;19550;42.872;25.494;2023-08-31T05:39:52;19.15;;;13.30;;
33184;SDS011;19550;42.872;25.494;2023-08-31T05:42:20;16.42;;;13.75;;
33184;SDS011;19550;42.872;25.494;2023-08-31T05:44:47;23.52;;;15.70;;
33184;SDS011;19550;42.872;25.494;2023-08-31T05:47:13;28.08;;;15.38;;
33184;SDS011;19550;42.872;25.494;2023-08-31T05:49:40;25.45;;;16.70;;
33184;SDS011;19550;42.872;25.494;2023-08-31T05:52:07;22.50;;;16.20;;
33184;SDS011;19550;42.872;25.494;2023-08-31T05:54:34;26.77;;;15.10;;
33184;SDS011;19550;42.872;25.494;2023-08-31T05:57:01;24.23;;;14.48;;
33184;SDS011;19550;42.872;25.494;2023-08-31T06:01:58;24.45;;;14.43;;
33184;SDS011;19550;42.872;25.494;2023-08-31T06:04:25;21.65;;;13.48;;
33184;SDS011;19550;42.872;25.494;2023-08-31T06:06:52;24.75;;;14.43;;
33184;SDS011;19550;42.872;25.494;2023-08-31T06:09:19;20.25;;;13.55;;
33184;SDS011;19550;42.872;25.494;2023-08-31T06:11:46;22.30;;;14.63;;
33184;SDS011;19550;42.872;25.494;2023-08-31T06:14:13;21.70;;;14.40;;
33184;SDS011;19550;42.872;25.494;2023-08-31T06:16:44;34.60;;;14.85;;
33184;SDS011;19550;42.872;25.494;2023-08-31T06:19:10;28.75;;;14.32;;
33184;SDS011;19550;42.872;25.494;2023-08-31T06:21:40;18.42;;;13.27;;
33184;SDS011;19550;42.872;25.494;2023-08-31T06:24:07;25.40;;;14.35;;
33184;SDS011;19550;42.872;25.494;2023-08-31T06:26:38;23.83;;;13.65;;
33184;SDS011;19550;42.872;25.494;2023-08-31T06:29:04;27.60;;;13.70;;
33184;SDS011;19550;42.872;25.494;2023-08-31T06:31:33;21.45;;;13.50;;
33184;SDS011;19550;42.872;25.494;2023-08-31T06:34:01;22.70;;;14.18;;
33184;SDS011;19550;42.872;25.494;2023-08-31T06:36:29;28.03;;;13.17;;
33184;SDS011;19550;42.872;25.494;2023-08-31T06:38:56;25.30;;;15.10;;
33184;SDS011;19550;42.872;25.494;2023-08-31T06:41:23;28.58;;;15.25;;
33184;SDS011;19550;42.872;25.494;2023-08-31T06:43:49;23.73;;;13.85;;
33184;SDS011;19550;42.872;25.494;2023-08-31T06:46:16;23.42;;;13.98;;
33184;SDS011;19550;42.872;25.494;2023-08-31T06:48:43;26.40;;;14.82;;
33184;SDS011;19550;42.872;25.494;2023-08-31T06:51:11;20.35;;;13.73;;
33184;SDS011;19550;42.872;25.494;2023-08-31T06:53:38;22.33;;;14.98;;
33184;SDS011;19550;42.872;25.494;2023-08-31T06:56:05;21.27;;;14.20;;
33184;SDS011;19550;42.872;25.494;2023-08-31T06:58:32;26.55;;;14.65;;
33184;SDS011;19550;42.872;25.494;2023-08-31T07:00:59;24.38;;;13.80;;
33184;SDS011;19550;42.872;25.494;2023-08-31T07:03:26;24.70;;;12.85;;
33184;SDS011;19550;42.872;25.494;2023-08-31T07:05:52;23.02;;;11.73;;
33184;SDS011;19550;42.872;25.494;2023-08-31T07:08:21;15.52;;;12.48;;
33184;SDS011;19550;42.872;25.494;2023-08-31T07:10:49;16.65;;;12.80;;
33184;SDS011;19550;42.872;25.494;2023-08-31T07:13:16;20.42;;;13.15;;
33184;SDS011;19550;42.872;25.494;2023-08-31T07:15:43;19.13;;;12.50;;
33184;SDS011;19550;42.872;25.494;2023-08-31T07:18:09;20.85;;;11.77;;
33184;SDS011;19550;42.872;25.494;2023-08-31T07:20:36;16.65;;;10.75;;
33184;SDS011;19550;42.872;25.494;2023-08-31T07:23:03;16.80;;;9.55;;
33184;SDS011;19550;42.872;25.494;2023-08-31T07:25:31;18.45;;;9.10;;
33184;SDS011;19550;42.872;25.494;2023-08-31T07:27:58;20.25;;;8.57;;
33184;SDS011;19550;42.872;25.494;2023-08-31T07:30:25;12.88;;;8.63;;
33184;SDS011;19550;42.872;25.494;2023-08-31T07:32:52;17.17;;;8.32;;
33184;SDS011;19550;42.872;25.494;2023-08-31T07:35:19;12.95;;;8.20;;
33184;SDS011;19550;42.872;25.494;2023-08-31T07:37:45;15.10;;;8.18;;
33184;SDS011;19550;42.872;25.494;2023-08-31T07:40:12;12.55;;;7.85;;
33184;SDS011;19550;42.872;25.494;2023-08-31T07:42:42;12.57;;;8.38;;
33184;SDS011;19550;42.872;25.494;2023-08-31T07:45:09;13.40;;;8.63;;
33184;SDS011;19550;42.872;25.494;2023-08-31T07:47:36;12.35;;;8.23;;
33184;SDS011;19550;42.872;25.494;2023-08-31T07:50:04;13.02;;;8.05;;
33184;SDS011;19550;42.872;25.494;2023-08-31T07:52:31;14.73;;;8.57;;
33184;SDS011;19550;42.872;25.494;2023-08-31T07:54:58;12.85;;;8.57;;
33184;SDS011;19550;42.872;25.494;2023-08-31T07:57:26;13.05;;;8.35;;
33184;SDS011;19550;42.872;25.494;2023-08-31T07:59:54;11.10;;;8.43;;
33184;SDS011;19550;42.872;25.494;2023-08-31T08:02:21;11.25;;;8.32;;
33184;SDS011;19550;42.872;25.494;2023-08-31T08:04:48;13.43;;;8.88;;
33184;SDS011;19550;42.872;25.494;2023-08-31T08:07:14;13.75;;;8.73;;
33184;SDS011;19550;42.872;25.494;2023-08-31T08:09:41;13.32;;;8.10;;
33184;SDS011;19550;42.872;25.494;2023-08-31T08:12:08;19.95;;;7.75;;
33184;SDS011;19550;42.872;25.494;2023-08-31T08:14:36;12.18;;;7.45;;
33184;SDS011;19550;42.872;25.494;2023-08-31T08:17:04;11.18;;;8.00;;
33184;SDS011;19550;42.872;25.494;2023-08-31T08:19:31;10.27;;;7.90;;
33184;SDS011;19550;42.872;25.494;2023-08-31T08:21:58;14.80;;;7.47;;
33184;SDS011;19550;42.872;25.494;2023-08-31T08:24:24;15.95;;;7.65;;
33184;SDS011;19550;42.872;25.494;2023-08-31T08:26:51;9.98;;;7.70;;
33184;SDS011;19550;42.872;25.494;2023-08-31T08:29:18;9.43;;;7.60;;
33184;SDS011;19550;42.872;25.494;2023-08-31T08:31:45;11.07;;;7.38;;
33184;SDS011;19550;42.872;25.494;2023-08-31T08:34:13;8.52;;;7.00;;
33184;SDS011;19550;42.872;25.494;2023-08-31T08:36:40;10.20;;;6.97;;
33184;SDS011;19550;42.872;25.494;2023-08-31T08:39:06;10.38;;;6.90;;
33184;SDS011;19550;42.872;25.494;2023-08-31T08:41:34;10.15;;;6.35;;
33184;SDS011;19550;42.872;25.494;2023-08-31T08:44:03;10.52;;;6.13;;
33184;SDS011;19550;42.872;25.494;2023-08-31T08:46:32;7.97;;;6.17;;
33184;SDS011;19550;42.872;25.494;2023-08-31T08:48:59;7.15;;;5.70;;
33184;SDS011;19550;42.872;25.494;2023-08-31T08:51:29;11.20;;;5.88;;
33184;SDS011;19550;42.872;25.494;2023-08-31T08:53:57;11.02;;;6.38;;
33184;SDS011;19550;42.872;25.494;2023-08-31T08:56:25;10.37;;;6.23;;
33184;SDS011;19550;42.872;25.494;2023-08-31T08:58:52;9.75;;;6.05;;
33184;SDS011;19550;42.872;25.494;2023-08-31T09:01:19;8.38;;;5.85;;
33184;SDS011;19550;42.872;25.494;2023-08-31T09:03:48;12.00;;;6.18;;
33184;SDS011;19550;42.872;25.494;2023-08-31T09:06:15;9.10;;;5.32;;
33184;SDS011;19550;42.872;25.494;2023-08-31T09:08:43;9.50;;;5.60;;
33184;SDS011;19550;42.872;25.494;2023-08-31T09:11:19;11.00;;;5.95;;
33184;SDS011;19550;42.872;25.494;2023-08-31T09:13:47;7.05;;;6.07;;
33184;SDS011;19550;42.872;25.494;2023-08-31T09:16:23;8.43;;;6.30;;
33184;SDS011;19550;42.872;25.494;2023-08-31T09:18:51;11.98;;;6.53;;
33184;SDS011;19550;42.872;25.494;2023-08-31T09:21:18;8.15;;;5.95;;
33184;SDS011;19550;42.872;25.494;2023-08-31T09:23:48;12.48;;;6.85;;
33184;SDS011;19550;42.872;25.494;2023-08-31T09:26:23;12.60;;;7.10;;
33184;SDS011;19550;42.872;25.494;2023-08-31T09:28:50;15.52;;;6.95;;
33184;SDS011;19550;42.872;25.494;2023-08-31T09:31:17;11.65;;;7.07;;
33184;SDS011;19550;42.872;25.494;2023-08-31T09:33:49;13.00;;;6.90;;
33184;SDS011;19550;42.872;25.494;2023-08-31T09:36:17;10.73;;;6.53;;
33184;SDS011;19550;42.872;25.494;2023-08-31T09:41:14;11.25;;;7.22;;
33184;SDS011;19550;42.872;25.494;2023-08-31T09:43:41;10.90;;;7.13;;
33184;SDS011;19550;42.872;25.494;2023-08-31T09:46:09;11.10;;;6.90;;
33184;SDS011;19550;42.872;25.494;2023-08-31T09:48:36;8.93;;;6.18;;
33184;SDS011;19550;42.872;25.494;2023-08-31T09:53:33;11.40;;;7.88;;
33184;SDS011;19550;42.872;25.494;2023-08-31T09:58:32;14.32;;;6.68;;
33184;SDS011;19550;42.872;25.494;2023-08-31T10:00:59;11.97;;;7.00;;
33184;SDS011;19550;42.872;25.494;2023-08-31T10:03:27;11.77;;;6.43;;
33184;SDS011;19550;42.872;25.494;2023-08-31T10:05:54;9.07;;;6.35;;
33184;SDS011;19550;42.872;25.494;2023-08-31T10:08:22;10.95;;;6.28;;
33184;SDS011;19550;42.872;25.494;2023-08-31T10:10:51;8.45;;;6.43;;
33184;SDS011;19550;42.872;25.494;2023-08-31T10:13:19;10.23;;;6.57;;
33184;SDS011;19550;42.872;25.494;2023-08-31T10:15:49;9.43;;;5.88;;
33184;SDS011;19550;42.872;25.494;2023-08-31T10:18:16;11.70;;;5.80;;
33184;SDS011;19550;42.872;25.494;2023-08-31T10:20:44;11.30;;;6.88;;
33184;SDS011;19550;42.872;25.494;2023-08-31T10:23:11;8.85;;;6.35;;
33184;SDS011;19550;42.872;25.494;2023-08-31T10:28:30;9.75;;;6.18;;
33184;SDS011;19550;42.872;25.494;2023-08-31T10:31:07;10.70;;;6.43;;
33184;SDS011;19550;42.872;25.494;2023-08-31T10:33:35;10.27;;;6.18;;
33184;SDS011;19550;42.872;25.494;2023-08-31T10:36:09;8.65;;;6.45;;
33184;SDS011;19550;42.872;25.494;2023-08-31T10:38:37;10.10;;;6.35;;
33184;SDS011;19550;42.872;25.494;2023-08-31T10:43:50;11.98;;;6.75;;
33184;SDS011;19550;42.872;25.494;2023-08-31T10:46:24;10.32;;;6.28;;
33184;SDS011;19550;42.872;25.494;2023-08-31T10:48:53;7.22;;;5.90;;
33184;SDS011;19550;42.872;25.494;2023-08-31T10:51:21;13.90;;;6.60;;
33184;SDS011;19550;42.872;25.494;2023-08-31T10:53:49;8.83;;;6.60;;
33184;SDS011;19550;42.872;25.494;2023-08-31T10:56:16;13.48;;;6.28;;
33184;SDS011;19550;42.872;25.494;2023-08-31T10:58:54;10.88;;;6.80;;
33184;SDS011;19550;42.872;25.494;2023-08-31T11:04:22;7.40;;;6.38;;
33184;SDS011;19550;42.872;25.494;2023-08-31T11:09:41;9.43;;;5.25;;
33184;SDS011;19550;42.872;25.494;2023-08-31T11:12:08;9.23;;;4.82;;
33184;SDS011;19550;42.872;25.494;2023-08-31T11:14:36;7.00;;;4.78;;
33184;SDS011;19550;42.872;25.494;2023-08-31T11:17:05;7.13;;;4.82;;
33184;SDS011;19550;42.872;25.494;2023-08-31T11:19:32;7.75;;;4.15;;
33184;SDS011;19550;42.872;25.494;2023-08-31T11:22:00;7.70;;;4.75;;
33184;SDS011;19550;42.872;25.494;2023-08-31T11:24:28;6.95;;;4.18;;
33184;SDS011;19550;42.872;25.494;2023-08-31T11:26:55;8.23;;;4.65;;
33184;SDS011;19550;42.872;25.494;2023-08-31T11:29:22;8.40;;;4.72;;
33184;SDS011;19550;42.872;25.494;2023-08-31T11:31:49;7.40;;;4.60;;
33184;SDS011;19550;42.872;25.494;2023-08-31T11:34:18;8.07;;;4.47;;
33184;SDS011;19550;42.872;25.494;2023-08-31T11:36:46;6.60;;;4.33;;
33184;SDS011;19550;42.872;25.494;2023-08-31T11:39:13;6.72;;;4.10;;
33184;SDS011;19550;42.872;25.494;2023-08-31T11:41:40;6.85;;;4.07;;
33184;SDS011;19550;42.872;25.494;2023-08-31T11:44:09;9.80;;;5.00;;
33184;SDS011;19550;42.872;25.494;2023-08-31T11:46:36;11.10;;;5.05;;
33184;SDS011;19550;42.872;25.494;2023-08-31T11:49:03;5.90;;;4.35;;
33184;SDS011;19550;42.872;25.494;2023-08-31T11:51:33;9.40;;;4.63;;
33184;SDS011;19550;42.872;25.494;2023-08-31T11:54:00;10.15;;;5.32;;
33184;SDS011;19550;42.872;25.494;2023-08-31T11:56:38;7.97;;;4.45;;
33184;SDS011;19550;42.872;25.494;2023-08-31T11:59:07;5.85;;;4.20;;
33184;SDS011;19550;42.872;25.494;2023-08-31T12:01:38;7.05;;;4.43;;
33184;SDS011;19550;42.872;25.494;2023-08-31T12:04:10;7.80;;;4.10;;
33184;SDS011;19550;42.872;25.494;2023-08-31T12:06:39;5.70;;;4.05;;
33184;SDS011;19550;42.872;25.494;2023-08-31T12:09:07;5.47;;;4.53;;
33184;SDS011;19550;42.872;25.494;2023-08-31T12:11:34;7.05;;;4.43;;
33184;SDS011;19550;42.872;25.494;2023-08-31T12:14:01;6.20;;;4.75;;
33184;SDS011;19550;42.872;25.494;2023-08-31T12:16:32;7.63;;;4.18;;
33184;SDS011;19550;42.872;25.494;2023-08-31T12:19:01;6.07;;;4.60;;
33184;SDS011;19550;42.872;25.494;2023-08-31T12:21:30;7.20;;;4.63;;
33184;SDS011;19550;42.872;25.494;2023-08-31T12:23:58;9.20;;;4.18;;
33184;SDS011;19550;42.872;25.494;2023-08-31T12:26:25;7.65;;;4.13;;
33184;SDS011;19550;42.872;25.494;2023-08-31T12:28:52;6.43;;;4.55;;
33184;SDS011;19550;42.872;25.494;2023-08-31T12:31:19;7.50;;;4.18;;
33184;SDS011;19550;42.872;25.494;2023-08-31T12:33:46;5.90;;;4.40;;
33184;SDS011;19550;42.872;25.494;2023-08-31T12:36:13;7.45;;;4.63;;
33184;SDS011;19550;42.872;25.494;2023-08-31T12:38:40;7.78;;;3.92;;
33184;SDS011;19550;42.872;25.494;2023-08-31T12:41:11;6.32;;;4.35;;
33184;SDS011;19550;42.872;25.494;2023-08-31T12:43:38;7.80;;;4.53;;
33184;SDS011;19550;42.872;25.494;2023-08-31T12:46:05;7.57;;;4.63;;
33184;SDS011;19550;42.872;25.494;2023-08-31T12:48:33;5.60;;;4.30;;
33184;SDS011;19550;42.872;25.494;2023-08-31T12:50:59;7.20;;;4.63;;
33184;SDS011;19550;42.872;25.494;2023-08-31T12:53:26;13.13;;;4.70;;
33184;SDS011;19550;42.872;25.494;2023-08-31T12:55:53;9.45;;;4.60;;
33184;SDS011;19550;42.872;25.494;2023-08-31T12:58:21;8.60;;;4.53;;
33184;SDS011;19550;42.872;25.494;2023-08-31T13:00:48;5.45;;;4.70;;
33184;SDS011;19550;42.872;25.494;2023-08-31T13:03:18;10.82;;;5.68;;
33184;SDS011;19550;42.872;25.494;2023-08-31T13:05:45;5.25;;;4.50;;
33184;SDS011;19550;42.872;25.494;2023-08-31T13:08:12;7.07;;;4.45;;
33184;SDS011;19550;42.872;25.494;2023-08-31T13:10:39;8.48;;;4.78;;
33184;SDS011;19550;42.872;25.494;2023-08-31T13:13:06;6.75;;;5.00;;
33184;SDS011;19550;42.872;25.494;2023-08-31T13:15:34;6.72;;;4.82;;
33184;SDS011;19550;42.872;25.494;2023-08-31T13:18:01;7.35;;;4.53;;
33184;SDS011;19550;42.872;25.494;2023-08-31T13:20:30;7.75;;;4.45;;
33184;SDS011;19550;42.872;25.494;2023-08-31T13:22:57;9.57;;;4.55;;
33184;SDS011;19550;42.872;25.494;2023-08-31T13:25:24;8.90;;;4.68;;
33184;SDS011;19550;42.872;25.494;2023-08-31T13:27:51;7.93;;;4.35;;
33184;SDS011;19550;42.872;25.494;2023-08-31T13:30:17;6.85;;;4.22;;
33184;SDS011;19550;42.872;25.494;2023-08-31T13:32:46;8.30;;;4.38;;
33184;SDS011;19550;42.872;25.494;2023-08-31T13:35:13;6.05;;;4.45;;
33184;SDS011;19550;42.872;25.494;2023-08-31T13:37:40;9.75;;;5.00;;
33184;SDS011;19550;42.872;25.494;2023-08-31T13:40:07;7.47;;;4.55;;
33184;SDS011;19550;42.872;25.494;2023-08-31T13:42:35;8.98;;;5.28;;
33184;SDS011;19550;42.872;25.494;2023-08-31T13:45:04;9.23;;;5.13;;
33184;SDS011;19550;42.872;25.494;2023-08-31T13:47:32;8.00;;;4.60;;
33184;SDS011;19550;42.872;25.494;2023-08-31T13:50:00;9.25;;;4.40;;
33184;SDS011;19550;42.872;25.494;2023-08-31T13:52:29;8.88;;;5.00;;
33184;SDS011;19550;42.872;25.494;2023-08-31T13:54:55;8.27;;;4.90;;
33184;SDS011;19550;42.872;25.494;2023-08-31T13:57:23;8.55;;;5.32;;
33184;SDS011;19550;42.872;25.494;2023-08-31T13:59:50;12.57;;;5.80;;
33184;SDS011;19550;42.872;25.494;2023-08-31T14:02:17;14.07;;;6.00;;
33184;SDS011;19550;42.872;25.494;2023-08-31T14:04:44;9.23;;;6.25;;
33184;SDS011;19550;42.872;25.494;2023-08-31T14:07:13;9.30;;;6.97;;
33184;SDS011;19550;42.872;25.494;2023-08-31T14:09:39;8.43;;;6.35;;
33184;SDS011;19550;42.872;25.494;2023-08-31T14:12:06;11.60;;;6.72;;
33184;SDS011;19550;42.872;25.494;2023-08-31T14:14:34;8.98;;;7.47;;
33184;SDS011;19550;42.872;25.494;2023-08-31T14:17:01;13.35;;;7.82;;
33184;SDS011;19550;42.872;25.494;2023-08-31T14:19:28;15.13;;;7.00;;
33184;SDS011;19550;42.872;25.494;2023-08-31T14:21:56;24.33;;;16.60;;
33184;SDS011;19550;42.872;25.494;2023-08-31T14:24:25;11.32;;;7.88;;
33184;SDS011;19550;42.872;25.494;2023-08-31T14:26:51;13.98;;;10.32;;
33184;SDS011;19550;42.872;25.494;2023-08-31T14:29:19;15.27;;;10.48;;
33184;SDS011;19550;42.872;25.494;2023-08-31T14:31:46;10.85;;;7.95;;
33184;SDS011;19550;42.872;25.494;2023-08-31T14:34:12;10.85;;;8.20;;
33184;SDS011;19550;42.872;25.494;2023-08-31T14:36:39;19.17;;;7.85;;
33184;SDS011;19550;42.872;25.494;2023-08-31T14:39:06;8.68;;;7.60;;
33184;SDS011;19550;42.872;25.494;2023-08-31T14:41:34;10.30;;;7.28;;
33184;SDS011;19550;42.872;25.494;2023-08-31T14:44:01;14.75;;;10.65;;
33184;SDS011;19550;42.872;25.494;2023-08-31T14:46:28;17.20;;;8.60;;